sensor_id;sensor_type;location;lat;lon;timestamp;pressure;altitude;pressure_sealevel;temperature;humidity
4598;BME280;62772;48.646;8.906;2024-01-30T00:02:06;97570.91;;;-0.93;100.00
4598;BME280;62772;48.646;8.906;2024-01-30T00:07:07;97562.59;;;-0.77;100.00
4598;BME280;62772;48.646;8.906;2024-01-30T00:12:08;97576.53;;;-0.76;100.00
4598;BME280;62772;48.646;8.906;2024-01-30T00:17:08;97570.91;;;-0.93;100.00
4598;BME280;62772;48.646;8.906;2024-01-30T00:22:08;97563.25;;;-0.88;100.00
4598;BME280;62772;48.646;8.906;2024-01-30T00:27:09;97573.56;;;-1.20;100.00
4598;BME280;62772;48.646;8.906;2024-01-30T00:32:12;97566.91;;;-1.02;100.00
4598;BME280;62772;48.646;8.906;2024-01-30T00:37:12;97572.44;;;-0.65;100.00
4598;BME280;62772;48.646;8.906;2024-01-30T00:42:13;97567.28;;;-0.33;100.00
4598;BME280;62772;48.646;8.906;2024-01-30T00:47:13;97562.25;;;-0.28;100.00
4598;BME280;62772;48.646;8.906;2024-01-30T00:52:14;97558.38;;;-0.26;100.00
4598;BME280;62772;48.646;8.906;2024-01-30T00:57:14;97563.00;;;-0.21;100.00
4598;BME280;62772;48.646;8.906;2024-01-30T01:02:15;97564.63;;;-0.20;100.00
4598;BME280;62772;48.646;8.906;2024-01-30T01:07:17;97562.09;;;-0.02;100.00
4598;BME280;62772;48.646;8.906;2024-01-30T01:12:18;97557.69;;;-0.53;100.00
4598;BME280;62772;48.646;8.906;2024-01-30T01:17:18;97566.31;;;-0.39;100.00
4598;BME280;62772;48.646;8.906;2024-01-30T01:22:19;97572.19;;;-0.44;100.00
4598;BME280;62772;48.646;8.906;2024-01-30T01:27:19;97571.81;;;-0.09;100.00
4598;BME280;62772;48.646;8.906;2024-01-30T01:32:19;97567.91;;;-0.31;100.00
4598;BME280;62772;48.646;8.906;2024-01-30T01:37:20;97573.19;;;-0.45;100.00
4598;BME280;62772;48.646;8.906;2024-01-30T01:42:22;97569.09;;;-0.93;100.00
4598;BME280;62772;48.646;8.906;2024-01-30T01:47:22;97570.72;;;-0.92;100.00
4598;BME280;62772;48.646;8.906;2024-01-30T01:52:23;97564.28;;;-0.89;100.00
4598;BME280;62772;48.646;8.906;2024-01-30T01:57:23;97567.03;;;-0.70;100.00
4598;BME280;62772;48.646;8.906;2024-01-30T02:02:24;97560.25;;;-1.12;100.00
4598;BME280;62772;48.646;8.906;2024-01-30T02:07:27;97558.06;;;-1.28;100.00
4598;BME280;62772;48.646;8.906;2024-01-30T02:12:28;97562.50;;;-1.22;100.00
4598;BME280;62772;48.646;8.906;2024-01-30T02:17:28;97563.09;;;-1.06;100.00
4598;BME280;62772;48.646;8.906;2024-01-30T02:22:29;97560.06;;;-1.23;100.00
4598;BME280;62772;48.646;8.906;2024-01-30T02:27:30;97557.84;;;-1.20;100.00
4598;BME280;62772;48.646;8.906;2024-01-30T02:32:30;97566.09;;;-1.03;100.00
4598;BME280;62772;48.646;8.906;2024-01-30T02:37:30;97566.91;;;-0.89;100.00
4598;BME280;62772;48.646;8.906;2024-01-30T02:42:31;97567.50;;;-1.07;100.00
4598;BME280;62772;48.646;8.906;2024-01-30T02:47:31;97565.53;;;-1.25;100.00
4598;BME280;62772;48.646;8.906;2024-01-30T02:52:32;97559.88;;;-1.35;100.00
4598;BME280;62772;48.646;8.906;2024-01-30T02:57:33;97563.91;;;-1.26;100.00
4598;BME280;62772;48.646;8.906;2024-01-30T03:02:34;97561.84;;;-1.04;100.00
4598;BME280;62772;48.646;8.906;2024-01-30T03:07:35;97551.81;;;-1.27;100.00
4598;BME280;62772;48.646;8.906;2024-01-30T03:12:36;97560.28;;;-1.25;100.00
4598;BME280;62772;48.646;8.906;2024-01-30T03:17:36;97562.72;;;-1.37;100.00
4598;BME280;62772;48.646;8.906;2024-01-30T03:22:37;97561.91;;;-1.44;100.00
4598;BME280;62772;48.646;8.906;2024-01-30T03:27:37;97558.06;;;-1.48;100.00
4598;BME280;62772;48.646;8.906;2024-01-30T03:32:38;97557.47;;;-1.50;100.00
4598;BME280;62772;48.646;8.906;2024-01-30T03:37:38;97558.06;;;-1.08;100.00
4598;BME280;62772;48.646;8.906;2024-01-30T03:42:38;97558.63;;;-0.99;100.00
4598;BME280;62772;48.646;8.906;2024-01-30T03:47:39;97549.75;;;-1.12;100.00
4598;BME280;62772;48.646;8.906;2024-01-30T03:52:40;97551.63;;;-1.25;100.00
4598;BME280;62772;48.646;8.906;2024-01-30T03:57:40;97554.84;;;-1.43;100.00
4598;BME280;62772;48.646;8.906;2024-01-30T04:02:41;97558.88;;;-1.81;100.00
4598;BME280;62772;48.646;8.906;2024-01-30T04:07:41;97563.13;;;-1.67;100.00
4598;BME280;62772;48.646;8.906;2024-01-30T04:12:41;97548.00;;;-1.58;100.00
4598;BME280;62772;48.646;8.906;2024-01-30T04:17:42;97545.56;;;-1.79;100.00
4598;BME280;62772;48.646;8.906;2024-01-30T04:22:44;97555.22;;;-1.87;100.00
4598;BME280;62772;48.646;8.906;2024-01-30T04:27:44;97553.22;;;-1.58;100.00
4598;BME280;62772;48.646;8.906;2024-01-30T04:32:45;97554.19;;;-1.99;100.00
4598;BME280;62772;48.646;8.906;2024-01-30T04:37:45;97556.03;;;-1.86;100.00
4598;BME280;62772;48.646;8.906;2024-01-30T04:42:46;97563.06;;;-2.00;100.00
4598;BME280;62772;48.646;8.906;2024-01-30T04:47:46;97558.88;;;-1.81;100.00
4598;BME280;62772;48.646;8.906;2024-01-30T04:52:47;97557.97;;;-2.22;100.00
4598;BME280;62772;48.646;8.906;2024-01-30T04:57:47;97558.25;;;-1.90;100.00
4598;BME280;62772;48.646;8.906;2024-01-30T05:02:48;97570.44;;;-2.24;100.00
4598;BME280;62772;48.646;8.906;2024-01-30T05:07:48;97557.75;;;-2.27;100.00
4598;BME280;62772;48.646;8.906;2024-01-30T05:12:49;97564.16;;;-2.36;100.00
4598;BME280;62772;48.646;8.906;2024-01-30T05:17:49;97556.72;;;-2.32;100.00
4598;BME280;62772;48.646;8.906;2024-01-30T05:22:50;97564.44;;;-2.11;100.00
4598;BME280;62772;48.646;8.906;2024-01-30T05:27:50;97554.09;;;-2.32;100.00
4598;BME280;62772;48.646;8.906;2024-01-30T05:32:51;97567.91;;;-1.97;100.00
4598;BME280;62772;48.646;8.906;2024-01-30T05:37:52;97572.75;;;-1.94;100.00
4598;BME280;62772;48.646;8.906;2024-01-30T05:42:53;97574.50;;;-2.21;100.00
4598;BME280;62772;48.646;8.906;2024-01-30T05:47:54;97570.44;;;-2.30;100.00
4598;BME280;62772;48.646;8.906;2024-01-30T05:52:54;97574.63;;;-2.43;100.00
4598;BME280;62772;48.646;8.906;2024-01-30T05:57:55;97578.88;;;-2.35;100.00
4598;BME280;62772;48.646;8.906;2024-01-30T06:02:55;97586.09;;;-2.37;100.00
4598;BME280;62772;48.646;8.906;2024-01-30T06:07:56;97577.44;;;-2.44;100.00
4598;BME280;62772;48.646;8.906;2024-01-30T06:12:56;97576.69;;;-2.25;100.00
4598;BME280;62772;48.646;8.906;2024-01-30T06:17:56;97577.41;;;-2.51;100.00
4598;BME280;62772;48.646;8.906;2024-01-30T06:22:57;97578.59;;;-2.53;100.00
4598;BME280;62772;48.646;8.906;2024-01-30T06:27:57;97578.38;;;-2.52;100.00
4598;BME280;62772;48.646;8.906;2024-01-30T06:32:58;97579.81;;;-2.49;100.00
4598;BME280;62772;48.646;8.906;2024-01-30T06:37:58;97581.09;;;-2.32;100.00
4598;BME280;62772;48.646;8.906;2024-01-30T06:42:59;97577.19;;;-2.56;100.00
4598;BME280;62772;48.646;8.906;2024-01-30T06:48:00;97581.59;;;-2.57;100.00
4598;BME280;62772;48.646;8.906;2024-01-30T06:53:00;97582.81;;;-2.52;100.00
4598;BME280;62772;48.646;8.906;2024-01-30T06:58:00;97589.31;;;-2.42;100.00
4598;BME280;62772;48.646;8.906;2024-01-30T07:03:01;97583.03;;;-2.54;100.00
4598;BME280;62772;48.646;8.906;2024-01-30T07:08:02;97592.91;;;-2.49;100.00
4598;BME280;62772;48.646;8.906;2024-01-30T07:13:02;97596.34;;;-2.42;100.00
4598;BME280;62772;48.646;8.906;2024-01-30T07:18:05;97596.91;;;-2.53;100.00
4598;BME280;62772;48.646;8.906;2024-01-30T07:23:06;97589.72;;;-2.38;100.00
4598;BME280;62772;48.646;8.906;2024-01-30T07:28:07;97597.22;;;-2.22;100.00
4598;BME280;62772;48.646;8.906;2024-01-30T07:33:09;97596.47;;;-2.02;100.00
4598;BME280;62772;48.646;8.906;2024-01-30T07:38:10;97599.31;;;-1.97;100.00
4598;BME280;62772;48.646;8.906;2024-01-30T07:43:10;97595.72;;;-1.83;100.00
4598;BME280;62772;48.646;8.906;2024-01-30T07:48:11;97594.91;;;-1.83;100.00
4598;BME280;62772;48.646;8.906;2024-01-30T07:53:11;97600.97;;;-1.69;100.00
4598;BME280;62772;48.646;8.906;2024-01-30T07:58:12;97597.78;;;-1.31;100.00
4598;BME280;62772;48.646;8.906;2024-01-30T08:03:12;97607.66;;;-1.26;100.00
4598;BME280;62772;48.646;8.906;2024-01-30T08:08:13;97606.66;;;-1.25;100.00
4598;BME280;62772;48.646;8.906;2024-01-30T08:13:13;97602.00;;;-1.17;100.00
4598;BME280;62772;48.646;8.906;2024-01-30T08:18:13;97600.97;;;-0.96;100.00
4598;BME280;62772;48.646;8.906;2024-01-30T08:23:14;97592.72;;;-0.27;100.00
4598;BME280;62772;48.646;8.906;2024-01-30T08:28:14;97598.78;;;-0.27;100.00
4598;BME280;62772;48.646;8.906;2024-01-30T08:33:15;97599.50;;;-0.13;100.00
4598;BME280;62772;48.646;8.906;2024-01-30T08:38:15;97599.69;;;-0.01;100.00
4598;BME280;62772;48.646;8.906;2024-01-30T08:43:16;97599.22;;;0.09;100.00
4598;BME280;62772;48.646;8.906;2024-01-30T08:48:16;97602.53;;;0.29;100.00
4598;BME280;62772;48.646;8.906;2024-01-30T08:53:18;97610.19;;;0.63;100.00
4598;BME280;62772;48.646;8.906;2024-01-30T08:58:18;97615.03;;;0.91;100.00
4598;BME280;62772;48.646;8.906;2024-01-30T09:03:19;97620.41;;;1.21;100.00
4598;BME280;62772;48.646;8.906;2024-01-30T09:08:19;97621.56;;;2.18;100.00
4598;BME280;62772;48.646;8.906;2024-01-30T09:13:20;97627.59;;;2.49;100.00
4598;BME280;62772;48.646;8.906;2024-01-30T09:18:20;97631.38;;;2.41;100.00
4598;BME280;62772;48.646;8.906;2024-01-30T09:23:21;97628.28;;;2.44;100.00
4598;BME280;62772;48.646;8.906;2024-01-30T09:28:22;97629.41;;;2.79;100.00
4598;BME280;62772;48.646;8.906;2024-01-30T09:33:22;97630.00;;;3.16;100.00
4598;BME280;62772;48.646;8.906;2024-01-30T09:38:23;97632.41;;;3.06;100.00
4598;BME280;62772;48.646;8.906;2024-01-30T09:43:23;97640.44;;;3.35;100.00
4598;BME280;62772;48.646;8.906;2024-01-30T09:48:25;97641.00;;;3.60;100.00
4598;BME280;62772;48.646;8.906;2024-01-30T09:53:26;97656.03;;;3.72;100.00
4598;BME280;62772;48.646;8.906;2024-01-30T09:58:26;97649.34;;;3.81;100.00
4598;BME280;62772;48.646;8.906;2024-01-30T10:03:27;97651.97;;;3.93;100.00
4598;BME280;62772;48.646;8.906;2024-01-30T10:08:27;97653.94;;;3.86;100.00
4598;BME280;62772;48.646;8.906;2024-01-30T10:13:30;97656.06;;;4.00;100.00
4598;BME280;62772;48.646;8.906;2024-01-30T10:18:30;97648.06;;;4.24;100.00
4598;BME280;62772;48.646;8.906;2024-01-30T10:23:30;97652.72;;;4.46;100.00
4598;BME280;62772;48.646;8.906;2024-01-30T10:28:31;97647.94;;;4.77;100.00
4598;BME280;62772;48.646;8.906;2024-01-30T10:33:31;97639.69;;;5.07;100.00
4598;BME280;62772;48.646;8.906;2024-01-30T10:38:32;97639.28;;;4.81;100.00
4598;BME280;62772;48.646;8.906;2024-01-30T10:43:40;97643.38;;;4.89;100.00
4598;BME280;62772;48.646;8.906;2024-01-30T10:48:42;97641.91;;;5.49;100.00
4598;BME280;62772;48.646;8.906;2024-01-30T10:53:46;97640.03;;;5.50;100.00
4598;BME280;62772;48.646;8.906;2024-01-30T10:58:48;97626.00;;;5.49;100.00
4598;BME280;62772;48.646;8.906;2024-01-30T11:03:53;97629.41;;;5.67;100.00
4598;BME280;62772;48.646;8.906;2024-01-30T11:09:05;97633.50;;;5.74;100.00
4598;BME280;62772;48.646;8.906;2024-01-30T11:14:10;97625.28;;;6.20;100.00
4598;BME280;62772;48.646;8.906;2024-01-30T11:19:10;97625.22;;;6.15;100.00
4598;BME280;62772;48.646;8.906;2024-01-30T11:24:14;97624.50;;;6.20;100.00
4598;BME280;62772;48.646;8.906;2024-01-30T11:29:14;97622.97;;;6.24;100.00
4598;BME280;62772;48.646;8.906;2024-01-30T11:34:15;97625.41;;;6.30;100.00
4598;BME280;62772;48.646;8.906;2024-01-30T11:39:17;97610.31;;;6.36;100.00
4598;BME280;62772;48.646;8.906;2024-01-30T11:44:18;97614.50;;;6.54;100.00
4598;BME280;62772;48.646;8.906;2024-01-30T11:49:20;97620.19;;;6.68;100.00
4598;BME280;62772;48.646;8.906;2024-01-30T11:54:21;97609.41;;;6.80;100.00
4598;BME280;62772;48.646;8.906;2024-01-30T11:59:21;97599.34;;;6.87;100.00
4598;BME280;62772;48.646;8.906;2024-01-30T12:04:22;97606.31;;;6.93;100.00
4598;BME280;62772;48.646;8.906;2024-01-30T12:09:22;97595.88;;;6.81;100.00
4598;BME280;62772;48.646;8.906;2024-01-30T12:14:23;97593.75;;;6.83;100.00
4598;BME280;62772;48.646;8.906;2024-01-30T12:19:26;97583.81;;;7.06;100.00
4598;BME280;62772;48.646;8.906;2024-01-30T12:24:27;97579.25;;;7.39;100.00
4598;BME280;62772;48.646;8.906;2024-01-30T12:29:32;97571.50;;;7.32;100.00
4598;BME280;62772;48.646;8.906;2024-01-30T12:34:33;97568.84;;;7.32;100.00
4598;BME280;62772;48.646;8.906;2024-01-30T12:39:34;97574.78;;;7.44;100.00
4598;BME280;62772;48.646;8.906;2024-01-30T12:44:35;97578.03;;;7.62;100.00
4598;BME280;62772;48.646;8.906;2024-01-30T12:49:36;97578.31;;;7.60;100.00
4598;BME280;62772;48.646;8.906;2024-01-30T12:54:36;97574.03;;;7.59;100.00
4598;BME280;62772;48.646;8.906;2024-01-30T12:59:37;97571.56;;;7.48;100.00
4598;BME280;62772;48.646;8.906;2024-01-30T13:04:37;97577.56;;;7.80;100.00
4598;BME280;62772;48.646;8.906;2024-01-30T13:09:38;97576.44;;;7.61;100.00
4598;BME280;62772;48.646;8.906;2024-01-30T13:14:38;97574.66;;;7.87;100.00
4598;BME280;62772;48.646;8.906;2024-01-30T13:19:39;97573.97;;;8.33;100.00
4598;BME280;62772;48.646;8.906;2024-01-30T13:24:39;97573.44;;;8.26;100.00
4598;BME280;62772;48.646;8.906;2024-01-30T13:29:40;97568.88;;;8.11;100.00
4598;BME280;62772;48.646;8.906;2024-01-30T13:34:40;97567.03;;;8.22;100.00
4598;BME280;62772;48.646;8.906;2024-01-30T13:39:41;97568.91;;;8.26;100.00
4598;BME280;62772;48.646;8.906;2024-01-30T13:44:41;97564.94;;;8.34;100.00
4598;BME280;62772;48.646;8.906;2024-01-30T13:49:44;97569.19;;;8.35;100.00
4598;BME280;62772;48.646;8.906;2024-01-30T13:54:44;97572.19;;;8.59;100.00
4598;BME280;62772;48.646;8.906;2024-01-30T13:59:45;97566.78;;;8.33;100.00
4598;BME280;62772;48.646;8.906;2024-01-30T14:04:45;97570.84;;;8.57;100.00
4598;BME280;62772;48.646;8.906;2024-01-30T14:09:47;97571.09;;;8.60;100.00
4598;BME280;62772;48.646;8.906;2024-01-30T14:14:48;97564.69;;;8.46;100.00
4598;BME280;62772;48.646;8.906;2024-01-30T14:19:48;97562.84;;;8.51;100.00
4598;BME280;62772;48.646;8.906;2024-01-30T14:24:49;97562.03;;;8.71;100.00
4598;BME280;62772;48.646;8.906;2024-01-30T14:29:49;97565.50;;;8.67;100.00
4598;BME280;62772;48.646;8.906;2024-01-30T14:34:50;97570.03;;;8.66;100.00
4598;BME280;62772;48.646;8.906;2024-01-30T14:39:51;97581.75;;;9.12;100.00
4598;BME280;62772;48.646;8.906;2024-01-30T14:44:51;97587.84;;;9.22;100.00
4598;BME280;62772;48.646;8.906;2024-01-30T14:49:52;97582.53;;;9.12;100.00
4598;BME280;62772;48.646;8.906;2024-01-30T14:54:52;97582.28;;;9.08;100.00
4598;BME280;62772;48.646;8.906;2024-01-30T14:59:53;97593.22;;;8.97;100.00
4598;BME280;62772;48.646;8.906;2024-01-30T15:04:53;97592.69;;;9.00;100.00
4598;BME280;62772;48.646;8.906;2024-01-30T15:09:54;97588.69;;;8.92;100.00
4598;BME280;62772;48.646;8.906;2024-01-30T15:14:54;97591.63;;;8.80;100.00
4598;BME280;62772;48.646;8.906;2024-01-30T15:19:54;97593.75;;;8.63;100.00
4598;BME280;62772;48.646;8.906;2024-01-30T15:24:55;97598.03;;;8.64;100.00
4598;BME280;62772;48.646;8.906;2024-01-30T15:29:55;97597.41;;;8.31;100.00
4598;BME280;62772;48.646;8.906;2024-01-30T15:34:56;97606.13;;;8.11;100.00
4598;BME280;62772;48.646;8.906;2024-01-30T15:39:57;97604.22;;;7.91;100.00
4598;BME280;62772;48.646;8.906;2024-01-30T15:44:57;97617.19;;;7.82;100.00
4598;BME280;62772;48.646;8.906;2024-01-30T15:49:59;97624.38;;;7.76;100.00
4598;BME280;62772;48.646;8.906;2024-01-30T15:54:59;97620.31;;;7.63;100.00
4598;BME280;62772;48.646;8.906;2024-01-30T15:59:59;97640.91;;;7.41;100.00
4598;BME280;62772;48.646;8.906;2024-01-30T16:05:00;97646.47;;;7.34;100.00
4598;BME280;62772;48.646;8.906;2024-01-30T16:10:02;97642.44;;;7.32;100.00
4598;BME280;62772;48.646;8.906;2024-01-30T16:15:03;97642.97;;;7.29;100.00
4598;BME280;62772;48.646;8.906;2024-01-30T16:20:04;97640.59;;;6.95;100.00
4598;BME280;62772;48.646;8.906;2024-01-30T16:25:06;97652.84;;;6.68;100.00
4598;BME280;62772;48.646;8.906;2024-01-30T16:30:06;97650.69;;;6.38;100.00
4598;BME280;62772;48.646;8.906;2024-01-30T16:35:07;97660.88;;;6.46;100.00
4598;BME280;62772;48.646;8.906;2024-01-30T16:40:08;97663.53;;;6.02;100.00
4598;BME280;62772;48.646;8.906;2024-01-30T16:45:08;97677.19;;;6.11;100.00
4598;BME280;62772;48.646;8.906;2024-01-30T16:50:09;97673.44;;;5.90;100.00
4598;BME280;62772;48.646;8.906;2024-01-30T16:55:10;97672.34;;;5.86;100.00
4598;BME280;62772;48.646;8.906;2024-01-30T17:00:11;97674.22;;;6.07;100.00
4598;BME280;62772;48.646;8.906;2024-01-30T17:05:11;97682.78;;;5.75;100.00
4598;BME280;62772;48.646;8.906;2024-01-30T17:10:12;97686.91;;;5.66;100.00
4598;BME280;62772;48.646;8.906;2024-01-30T17:15:13;97693.28;;;5.65;100.00
4598;BME280;62772;48.646;8.906;2024-01-30T17:20:14;97698.81;;;5.47;100.00
4598;BME280;62772;48.646;8.906;2024-01-30T17:25:14;97698.16;;;5.56;100.00
4598;BME280;62772;48.646;8.906;2024-01-30T17:30:20;97707.31;;;5.49;100.00
4598;BME280;62772;48.646;8.906;2024-01-30T17:35:21;97703.75;;;5.38;100.00
4598;BME280;62772;48.646;8.906;2024-01-30T17:40:22;97701.88;;;5.21;100.00
4598;BME280;62772;48.646;8.906;2024-01-30T17:45:22;97713.91;;;5.12;100.00
4598;BME280;62772;48.646;8.906;2024-01-30T17:50:22;97714.00;;;5.17;100.00
4598;BME280;62772;48.646;8.906;2024-01-30T17:55:23;97716.88;;;4.99;100.00
4598;BME280;62772;48.646;8.906;2024-01-30T18:00:24;97724.34;;;5.02;100.00
4598;BME280;62772;48.646;8.906;2024-01-30T18:05:25;97726.38;;;5.29;100.00
4598;BME280;62772;48.646;8.906;2024-01-30T18:10:25;97726.41;;;4.83;100.00
4598;BME280;62772;48.646;8.906;2024-01-30T18:15:26;97719.63;;;4.75;100.00
4598;BME280;62772;48.646;8.906;2024-01-30T18:20:26;97726.78;;;4.75;100.00
4598;BME280;62772;48.646;8.906;2024-01-30T18:25:27;97738.22;;;4.92;100.00
4598;BME280;62772;48.646;8.906;2024-01-30T18:30:27;97738.97;;;5.04;100.00
4598;BME280;62772;48.646;8.906;2024-01-30T18:35:28;97747.31;;;5.30;100.00
4598;BME280;62772;48.646;8.906;2024-01-30T18:40:29;97756.88;;;5.31;100.00
4598;BME280;62772;48.646;8.906;2024-01-30T18:45:29;97755.25;;;5.64;100.00
4598;BME280;62772;48.646;8.906;2024-01-30T18:50:30;97760.31;;;5.66;100.00
4598;BME280;62772;48.646;8.906;2024-01-30T18:55:30;97763.53;;;5.85;100.00
4598;BME280;62772;48.646;8.906;2024-01-30T19:00:32;97767.38;;;5.94;100.00
4598;BME280;62772;48.646;8.906;2024-01-30T19:05:33;97759.34;;;5.89;100.00
4598;BME280;62772;48.646;8.906;2024-01-30T19:10:34;97760.97;;;5.73;100.00
4598;BME280;62772;48.646;8.906;2024-01-30T19:15:35;97761.59;;;5.80;100.00
4598;BME280;62772;48.646;8.906;2024-01-30T19:20:36;97765.56;;;5.77;100.00
4598;BME280;62772;48.646;8.906;2024-01-30T19:25:36;97751.66;;;5.70;100.00
4598;BME280;62772;48.646;8.906;2024-01-30T19:30:37;97753.41;;;5.64;100.00
4598;BME280;62772;48.646;8.906;2024-01-30T19:35:37;97755.75;;;5.61;100.00
4598;BME280;62772;48.646;8.906;2024-01-30T19:40:38;97753.69;;;5.46;100.00
4598;BME280;62772;48.646;8.906;2024-01-30T19:45:39;97756.81;;;5.43;100.00
4598;BME280;62772;48.646;8.906;2024-01-30T19:50:40;97753.09;;;5.27;100.00
4598;BME280;62772;48.646;8.906;2024-01-30T19:55:40;97758.31;;;5.22;100.00
4598;BME280;62772;48.646;8.906;2024-01-30T20:00:41;97758.69;;;4.97;100.00
4598;BME280;62772;48.646;8.906;2024-01-30T20:05:41;97760.03;;;4.70;100.00
4598;BME280;62772;48.646;8.906;2024-01-30T20:10:42;97763.03;;;4.74;100.00
4598;BME280;62772;48.646;8.906;2024-01-30T20:15:43;97765.44;;;4.76;100.00
4598;BME280;62772;48.646;8.906;2024-01-30T20:20:44;97771.34;;;4.66;100.00
4598;BME280;62772;48.646;8.906;2024-01-30T20:25:44;97774.69;;;4.61;100.00
4598;BME280;62772;48.646;8.906;2024-01-30T20:30:45;97782.19;;;4.52;100.00
4598;BME280;62772;48.646;8.906;2024-01-30T20:35:46;97780.94;;;4.55;100.00
4598;BME280;62772;48.646;8.906;2024-01-30T20:40:47;97783.97;;;4.35;100.00
4598;BME280;62772;48.646;8.906;2024-01-30T20:45:48;97779.59;;;4.29;100.00
4598;BME280;62772;48.646;8.906;2024-01-30T20:50:48;97785.16;;;3.92;100.00
4598;BME280;62772;48.646;8.906;2024-01-30T20:55:49;97790.81;;;3.84;100.00
4598;BME280;62772;48.646;8.906;2024-01-30T21:00:49;97790.91;;;3.65;100.00
4598;BME280;62772;48.646;8.906;2024-01-30T21:05:50;97788.47;;;3.75;100.00
4598;BME280;62772;48.646;8.906;2024-01-30T21:10:50;97780.44;;;3.58;100.00
4598;BME280;62772;48.646;8.906;2024-01-30T21:15:51;97783.31;;;3.57;100.00
4598;BME280;62772;48.646;8.906;2024-01-30T21:20:51;97789.84;;;3.42;100.00
4598;BME280;62772;48.646;8.906;2024-01-30T21:25:53;97790.25;;;3.27;100.00
4598;BME280;62772;48.646;8.906;2024-01-30T21:30:54;97784.97;;;3.16;100.00
4598;BME280;62772;48.646;8.906;2024-01-30T21:35:54;97787.94;;;3.19;100.00
4598;BME280;62772;48.646;8.906;2024-01-30T21:40:54;97784.72;;;3.17;100.00
4598;BME280;62772;48.646;8.906;2024-01-30T21:45:55;97776.97;;;3.34;100.00
4598;BME280;62772;48.646;8.906;2024-01-30T21:50:55;97772.75;;;3.57;100.00
4598;BME280;62772;48.646;8.906;2024-01-30T21:55:56;97789.16;;;3.47;100.00
4598;BME280;62772;48.646;8.906;2024-01-30T22:00:56;97782.75;;;3.55;100.00
4598;BME280;62772;48.646;8.906;2024-01-30T22:05:57;97793.78;;;3.52;100.00
4598;BME280;62772;48.646;8.906;2024-01-30T22:10:57;97788.72;;;3.50;100.00
4598;BME280;62772;48.646;8.906;2024-01-30T22:15:58;97790.09;;;3.76;100.00
4598;BME280;62772;48.646;8.906;2024-01-30T22:20:58;97798.25;;;3.75;100.00
4598;BME280;62772;48.646;8.906;2024-01-30T22:26:01;97811.00;;;3.66;100.00
4598;BME280;62772;48.646;8.906;2024-01-30T22:31:02;97805.59;;;3.61;100.00
4598;BME280;62772;48.646;8.906;2024-01-30T22:36:03;97808.91;;;3.44;100.00
4598;BME280;62772;48.646;8.906;2024-01-30T22:41:03;97809.88;;;3.86;100.00
4598;BME280;62772;48.646;8.906;2024-01-30T22:46:04;97814.78;;;3.58;100.00
4598;BME280;62772;48.646;8.906;2024-01-30T22:51:05;97815.63;;;3.83;100.00
4598;BME280;62772;48.646;8.906;2024-01-30T22:56:06;97815.69;;;3.64;100.00
4598;BME280;62772;48.646;8.906;2024-01-30T23:01:08;97827.13;;;3.88;100.00
4598;BME280;62772;48.646;8.906;2024-01-30T23:06:09;97830.31;;;3.55;100.00
4598;BME280;62772;48.646;8.906;2024-01-30T23:11:13;97835.72;;;3.95;100.00
4598;BME280;62772;48.646;8.906;2024-01-30T23:16:13;97829.31;;;4.03;100.00
4598;BME280;62772;48.646;8.906;2024-01-30T23:21:15;97832.16;;;3.66;100.00
4598;BME280;62772;48.646;8.906;2024-01-30T23:26:16;97827.91;;;3.89;100.00
4598;BME280;62772;48.646;8.906;2024-01-30T23:31:17;97829.84;;;3.81;100.00
4598;BME280;62772;48.646;8.906;2024-01-30T23:36:17;97835.72;;;3.95;100.00
4598;BME280;62772;48.646;8.906;2024-01-30T23:41:18;97840.19;;;3.71;100.00
4598;BME280;62772;48.646;8.906;2024-01-30T23:46:18;97836.53;;;3.96;100.00
4598;BME280;62772;48.646;8.906;2024-01-30T23:51:18;97835.38;;;3.80;100.00
4598;BME280;62772;48.646;8.906;2024-01-30T23:56:19;97841.03;;;4.19;100.00
